createdAt,value
2019-04-25T00:03:04.298Z,100112.02
2019-04-25T00:08:08.784Z,100128.81
2019-04-25T00:13:13.656Z,100116.08
2019-04-25T00:18:18.041Z,100138.05
2019-04-25T00:23:22.310Z,100150.02
2019-04-25T00:28:26.505Z,100148.67
2019-04-25T00:33:31.545Z,100142.19
2019-04-25T00:38:35.873Z,100160.00
2019-04-25T00:43:42.184Z,100158.17
2019-04-25T00:48:45.993Z,100161.36
2019-04-25T00:53:52.055Z,100139.72
2019-04-25T00:59:11.862Z,100143.80
2019-04-25T01:04:18.476Z,100167.45
2019-04-25T01:09:22.683Z,100156.09
2019-04-25T01:14:26.885Z,100161.52
2019-04-25T01:19:31.093Z,100175.55
2019-04-25T01:24:35.292Z,100177.22
2019-04-25T01:29:39.491Z,100182.07
2019-04-25T01:35:08.787Z,100188.56
2019-04-25T01:40:38.233Z,100186.41
2019-04-25T01:45:43.815Z,100189.65
2019-04-25T01:50:49.287Z,100171.57
2019-04-25T01:56:02.358Z,100177.25
2019-04-25T02:00:59.737Z,100190.73
2019-04-25T02:06:05.078Z,100196.92
2019-04-25T02:11:37.655Z,100186.14
2019-04-25T02:16:41.850Z,100178.31
2019-04-25T02:21:46.127Z,100163.47
2019-04-25T02:26:50.317Z,100163.45
2019-04-25T02:31:58.494Z,100209.63
2019-04-25T02:37:02.978Z,100222.86
2019-04-25T02:42:08.405Z,100234.73
2019-04-25T02:47:24.873Z,100264.44
2019-04-25T02:52:46.559Z,100271.70
2019-04-25T02:57:50.745Z,100284.37
2019-04-25T03:02:57.341Z,100278.40
2019-04-25T03:08:01.824Z,100254.13
2019-04-25T03:13:11.473Z,100248.45
2019-04-25T03:18:15.353Z,100273.01
2019-04-25T03:23:42.193Z,100279.20
2019-04-25T03:28:44.966Z,100285.95
2019-04-25T03:33:49.161Z,100295.95
2019-04-25T03:38:54.155Z,100298.42
2019-04-25T03:43:58.404Z,100308.65
2019-04-25T03:49:05.009Z,100315.88
2019-04-25T03:54:09.558Z,100326.36
2019-04-25T03:59:16.060Z,100330.39
2019-04-25T04:04:20.442Z,100351.12
2019-04-25T04:09:24.661Z,100351.05
2019-04-25T04:14:28.853Z,100361.27
2019-04-25T04:19:38.047Z,100379.81
2019-04-25T04:24:46.661Z,100398.38
2019-04-25T04:29:50.859Z,100413.39
2019-04-25T04:34:55.062Z,100425.48
2019-04-25T04:39:59.263Z,100430.77
2019-04-25T04:45:04.209Z,100440.56
2019-04-25T04:50:09.023Z,100457.50
2019-04-25T04:55:16.065Z,100464.39
2019-04-25T05:00:19.556Z,100472.50
2019-04-25T05:05:45.758Z,100487.53
2019-04-25T05:10:49.959Z,100491.78
2019-04-25T05:15:54.148Z,100495.86
2019-04-25T05:20:58.368Z,100495.64
2019-04-25T05:26:04.267Z,100508.98
2019-04-25T05:31:18.059Z,100515.75
2019-04-25T05:36:23.885Z,100528.00
2019-04-25T05:41:50.274Z,100534.73
2019-04-25T05:46:54.895Z,100546.88
2019-04-25T05:51:59.083Z,100554.11
2019-04-25T05:57:03.713Z,100560.73
2019-04-25T06:02:07.921Z,100563.63
2019-04-25T06:07:12.117Z,100562.64
2019-04-25T06:12:26.709Z,100569.78
2019-04-25T06:17:39.287Z,100580.12
2019-04-25T06:22:53.473Z,100582.84
2019-04-25T06:27:59.440Z,100588.45
2019-04-25T06:33:03.650Z,100597.39
2019-04-25T06:38:07.843Z,100606.34
2019-04-25T06:43:13.441Z,100616.07
2019-04-25T06:48:36.861Z,100616.07
2019-04-25T06:53:41.112Z,100623.44
2019-04-25T06:58:45.384Z,100607.61
2019-04-25T07:03:49.619Z,100625.96
2019-04-25T07:08:53.833Z,100623.23
2019-04-25T07:13:58.058Z,100620.56
2019-04-25T07:19:02.539Z,100625.43
2019-04-25T07:24:07.161Z,100642.98
2019-04-25T07:29:33.717Z,100652.50
2019-04-25T07:34:38.037Z,100647.88
2019-04-25T07:39:42.226Z,100657.59
2019-04-25T07:44:52.487Z,100669.04
2019-04-25T07:49:52.375Z,100665.95
2019-04-25T07:54:56.580Z,100674.45
2019-04-25T08:00:00.790Z,100670.30
2019-04-25T08:05:11.041Z,100686.58
2019-04-25T08:10:16.551Z,100679.83
2019-04-25T08:15:38.355Z,100686.31
2019-04-25T08:20:43.407Z,100683.34
2019-04-25T08:25:47.718Z,100678.97
2019-04-25T08:30:54.832Z,100689.57
2019-04-25T08:36:08.211Z,100701.76
2019-04-25T08:41:04.139Z,100697.45
2019-04-25T08:46:08.406Z,100674.91
2019-04-25T08:51:15.614Z,100702.78
2019-04-25T08:56:24.982Z,100699.03
2019-04-25T09:01:49.955Z,100703.77
2019-04-25T09:06:54.176Z,100708.14
2019-04-25T09:11:58.401Z,100711.31
2019-04-25T09:17:03.254Z,100704.44
2019-04-25T09:22:07.459Z,100716.59
2019-04-25T09:27:13.320Z,100713.14
2019-04-25T09:32:18.371Z,100704.61
2019-04-25T09:42:33.822Z,100706.30
2019-04-25T09:52:50.219Z,100707.22
2019-04-25T09:58:16.323Z,100695.88
2019-04-25T10:03:20.534Z,100683.05
2019-04-25T10:08:24.754Z,100700.46
2019-04-25T10:13:29.049Z,100686.08
2019-04-25T10:18:34.569Z,100686.06
2019-04-25T10:23:39.856Z,100686.06
2019-04-25T10:28:45.230Z,100685.95
2019-04-25T10:33:49.577Z,100676.87
2019-04-25T10:39:05.116Z,100679.84
2019-04-25T10:43:59.778Z,100677.75
2019-04-25T10:49:04.438Z,100675.56
2019-04-25T10:54:08.757Z,100665.71
2019-04-25T10:59:14.477Z,100656.63
2019-04-25T11:04:37.783Z,100652.07
2019-04-25T11:09:44.956Z,100649.80
2019-04-25T11:14:48.772Z,100645.00
2019-04-25T11:19:54.272Z,100643.07
2019-04-25T11:24:59.106Z,100638.50
2019-04-25T11:30:10.749Z,100631.19
2019-04-25T11:35:09.516Z,100634.15
2019-04-25T11:40:23.499Z,100633.36
2019-04-25T11:45:27.731Z,100629.20
2019-04-25T11:50:31.983Z,100624.45
2019-04-25T11:55:36.193Z,100618.78
2019-04-25T12:00:40.370Z,100616.94
2019-04-25T12:05:45.839Z,100614.23
2019-04-25T12:10:51.566Z,100621.22
2019-04-25T12:15:55.905Z,100623.95
2019-04-25T12:21:00.105Z,100616.87
2019-04-25T12:26:04.456Z,100615.63
2019-04-25T12:31:08.640Z,100611.41
2019-04-25T12:36:13.624Z,100618.80
2019-04-25T12:41:17.842Z,100611.19
2019-04-25T12:46:28.438Z,100610.47
2019-04-25T12:51:32.621Z,100611.38
2019-04-25T12:56:36.814Z,100603.66
2019-04-25T13:01:40.991Z,100601.77
2019-04-25T13:06:45.206Z,100602.64
2019-04-25T13:11:49.409Z,100594.20
2019-04-25T13:16:53.625Z,100597.46
2019-04-25T13:21:57.976Z,100592.29
2019-04-25T13:27:08.019Z,100589.60
2019-04-25T13:32:35.900Z,100590.59
2019-04-25T13:37:40.086Z,100570.98
2019-04-25T13:42:44.272Z,100577.69
2019-04-25T13:47:48.462Z,100572.66
2019-04-25T13:52:53.393Z,100567.74
2019-04-25T13:57:57.835Z,100572.34
2019-04-25T14:03:02.150Z,100565.78
2019-04-25T14:08:06.374Z,100561.73
2019-04-25T14:13:10.950Z,100556.16
2019-04-25T14:18:44.060Z,100551.20
2019-04-25T14:23:48.826Z,100552.34
2019-04-25T14:28:54.167Z,100541.23
2019-04-25T14:33:58.457Z,100546.44
2019-04-25T14:39:02.660Z,100544.29
2019-04-25T14:44:06.867Z,100547.75
2019-04-25T14:49:11.061Z,100532.09
2019-04-25T14:54:30.674Z,100532.23
2019-04-25T14:59:34.932Z,100531.38
2019-04-25T15:04:39.132Z,100525.73
2019-04-25T15:09:43.341Z,100520.96
2019-04-25T15:14:47.979Z,100514.86
2019-04-25T15:19:52.186Z,100517.97
2019-04-25T15:24:56.420Z,100512.66
2019-04-25T15:30:00.635Z,100505.12
2019-04-25T15:35:05.314Z,100507.86
2019-04-25T15:40:16.235Z,100494.54
2019-04-25T15:45:48.331Z,100490.30
2019-04-25T15:50:53.389Z,100489.18
2019-04-25T15:55:57.587Z,100486.02
2019-04-25T16:01:01.778Z,100484.44
2019-04-25T16:06:05.998Z,100487.27
2019-04-25T16:11:10.206Z,100480.98
2019-04-25T16:16:14.398Z,100483.16
2019-04-25T16:21:18.598Z,100473.66
2019-04-25T16:26:23.154Z,100472.41
2019-04-25T16:31:28.927Z,100470.28
2019-04-25T16:36:33.356Z,100471.75
2019-04-25T16:41:40.021Z,100469.45
2019-04-25T16:46:43.828Z,100469.65
2019-04-25T16:51:48.012Z,100470.91
2019-04-25T16:56:52.227Z,100471.00
2019-04-25T17:01:56.467Z,100467.67
2019-04-25T17:07:00.799Z,100467.25
2019-04-25T17:12:05.652Z,100469.66
2019-04-25T17:17:38.019Z,100465.72
2019-04-25T17:22:43.703Z,100466.67
2019-04-25T17:27:47.892Z,100467.83
2019-04-25T17:33:05.182Z,100469.11
2019-04-25T17:38:35.480Z,100474.57
2019-04-25T17:43:40.124Z,100473.03
2019-04-25T17:48:44.374Z,100472.80
2019-04-25T17:53:48.668Z,100469.30
2019-04-25T17:58:52.848Z,100473.12
2019-04-25T18:03:57.331Z,100471.66
2019-04-25T18:09:01.554Z,100473.99
2019-04-25T18:14:05.940Z,100470.37
2019-04-25T18:19:25.062Z,100476.37
2019-04-25T18:24:58.173Z,100470.63
2019-04-25T18:30:03.008Z,100473.94
2019-04-25T18:35:24.878Z,100480.01
2019-04-25T18:40:50.948Z,100481.33
2019-04-25T18:45:59.702Z,100476.77
2019-04-25T18:51:04.089Z,100472.27
2019-04-25T18:56:30.126Z,100475.15
2019-04-25T19:01:52.453Z,100477.00
2019-04-25T19:06:58.377Z,100485.55
2019-04-25T19:12:03.677Z,100479.55
2019-04-25T19:17:09.251Z,100477.45
2019-04-25T19:22:13.439Z,100469.77
2019-04-25T19:27:23.529Z,100472.73
2019-04-25T19:32:23.726Z,100443.80
2019-04-25T19:37:27.915Z,100467.61
2019-04-25T19:42:36.689Z,100472.28
2019-04-25T19:47:41.488Z,100474.64
2019-04-25T19:52:45.694Z,100481.32
2019-04-25T19:57:50.312Z,100474.11
2019-04-25T20:03:16.366Z,100474.59
2019-04-25T20:08:33.068Z,100474.19
2019-04-25T20:13:37.371Z,100479.23
2019-04-25T20:18:41.587Z,100479.95
2019-04-25T20:23:46.464Z,100475.69
2019-04-25T20:28:51.250Z,100475.81
2019-04-25T20:34:05.381Z,100465.87
2019-04-25T20:39:01.475Z,100461.33
2019-04-25T20:44:05.669Z,100462.32
2019-04-25T20:49:09.909Z,100459.68
2019-04-25T20:54:14.095Z,100462.20
2019-04-25T20:59:20.786Z,100462.59
2019-04-25T21:04:40.983Z,100450.25
2019-04-25T21:09:45.167Z,100452.81
2019-04-25T21:15:09.014Z,100446.48
2019-04-25T21:20:13.221Z,100446.06
2019-04-25T21:25:17.404Z,100438.88
2019-04-25T21:30:21.581Z,100439.77
2019-04-25T21:35:25.992Z,100432.01
2019-04-25T21:40:40.683Z,100434.76
2019-04-25T21:45:45.589Z,100430.52
2019-04-25T21:50:49.996Z,100426.83
2019-04-25T21:55:55.251Z,100425.30
2019-04-25T22:01:05.053Z,100423.47
2019-04-25T22:06:09.422Z,100423.59
2019-04-25T22:11:13.612Z,100402.80
2019-04-25T22:16:18.067Z,100409.89
2019-04-25T22:21:22.999Z,100407.79
2019-04-25T22:26:27.454Z,100409.73
2019-04-25T22:31:37.011Z,100407.61
2019-04-25T22:36:41.875Z,100404.69
2019-04-25T22:41:47.445Z,100409.87
2019-04-25T22:46:52.671Z,100407.43
2019-04-25T22:51:56.855Z,100404.50
2019-04-25T22:57:01.779Z,100404.53
2019-04-25T23:02:35.140Z,100398.36
2019-04-25T23:07:39.345Z,100407.99
2019-04-25T23:12:43.921Z,100407.99
2019-04-25T23:17:48.338Z,100396.12
2019-04-25T23:22:52.895Z,100389.94
2019-04-25T23:28:16.239Z,100387.30
2019-04-25T23:33:20.896Z,100368.46
2019-04-25T23:38:25.366Z,100375.80
2019-04-25T23:43:29.591Z,100365.82
2019-04-25T23:48:33.827Z,100365.58
2019-04-25T23:53:38.027Z,100366.72
2019-04-25T23:58:42.236Z,100369.45
